Time;durP1;ratioP1;P1;durP2;ratioP2;P2;SDS_P1;SDS_P2;PMS_P1;PMS_P2;Temp;Humidity;BMP_temperature;BMP_pressure;BME280_temperature;BME280_humidity;BME280_pressure;Samples;Min_cycle;Max_cycle;Signal;HPM_P1;HPM_P2
2021/01/17 00:00:12;;;;;;;12.68;7.60;;;;;;;-5.89;66.90;98001.11;1816849;79;20948;-62
2021/01/17 00:02:41;;;;;;;11.75;7.37;;;;;;;-5.86;66.76;97998.47;1817006;79;20920;-61
2021/01/17 00:05:11;;;;;;;12.35;8.13;;;;;;;-5.84;66.47;97996.70;1816946;79;20869;-62
2021/01/17 00:07:39;;;;;;;10.65;8.30;;;;;;;-5.80;66.27;97992.32;1816957;79;20877;-60
2021/01/17 00:10:10;;;;;;;8.95;6.15;;;;;;;-5.77;66.04;97980.52;1816901;79;21241;-61
2021/01/17 00:12:37;;;;;;;11.03;7.00;;;;;;;-5.76;65.88;97984.84;1816846;79;20979;-62
2021/01/17 00:15:10;;;;;;;10.03;7.22;;;;;;;-5.73;65.75;97985.27;1816966;79;20972;-61
2021/01/17 00:17:39;;;;;;;10.32;7.80;;;;;;;-5.72;65.83;97980.44;1816863;79;20964;-62
2021/01/17 00:20:12;;;;;;;11.40;7.40;;;;;;;-5.70;65.88;97987.85;1816941;79;20999;-62
2021/01/17 00:22:39;;;;;;;9.88;7.05;;;;;;;-5.68;65.88;97983.46;1817089;79;21189;-62
2021/01/17 00:25:10;;;;;;;10.88;7.45;;;;;;;-5.66;65.75;97984.30;1816903;79;20971;-62
2021/01/17 00:27:38;;;;;;;11.73;7.40;;;;;;;-5.63;65.58;97984.27;1816184;79;20916;-61
2021/01/17 00:30:30;;;;;;;10.25;7.67;;;;;;;-5.62;65.38;97987.32;1816966;79;20987;-63
2021/01/17 00:33:02;;;;;;;12.78;8.20;;;;;;;-5.62;65.12;97979.47;1656659;86;20961;-61
2021/01/17 00:35:31;;;;;;;10.18;7.15;;;;;;;-5.60;65.25;97984.23;1626635;88;21387;-62
2021/01/17 00:38:00;;;;;;;10.23;6.62;;;;;;;-5.59;64.88;97980.74;1604545;89;20995;-62
2021/01/17 00:40:28;;;;;;;8.23;6.30;;;;;;;-5.61;64.52;97979.91;1626645;88;20953;-62
2021/01/17 00:42:56;;;;;;;12.73;6.65;;;;;;;-5.62;64.77;97983.39;1626621;88;21023;-62
2021/01/17 00:45:26;;;;;;;8.60;6.35;;;;;;;-5.64;64.60;97979.48;1604622;89;21047;-62
2021/01/17 00:47:54;;;;;;;8.05;6.50;;;;;;;-5.63;64.57;97980.34;1626621;87;21405;-62
2021/01/17 00:50:25;;;;;;;9.88;8.10;;;;;;;-5.64;64.72;97978.63;1626588;88;21031;-62
2021/01/17 00:52:55;;;;;;;13.20;6.92;;;;;;;-5.63;64.68;97968.56;1604562;89;21051;-62
2021/01/17 00:55:24;;;;;;;6.92;5.30;;;;;;;-5.63;64.62;97962.91;1626492;87;21047;-62
2021/01/17 00:57:52;;;;;;;8.93;6.40;;;;;;;-5.63;64.34;97968.14;1626638;88;20985;-62
2021/01/17 01:00:23;;;;;;;10.18;5.83;;;;;;;-5.64;64.38;97964.23;1604593;89;21239;-61
2021/01/17 01:03:05;;;;;;;10.40;6.83;;;;;;;-5.66;64.35;97967.29;1621187;88;21021;-62
2021/01/17 01:05:33;;;;;;;8.75;6.60;;;;;;;-5.69;64.45;97968.63;1622471;88;21598;-63
2021/01/17 01:08:06;;;;;;;8.70;6.42;;;;;;;-5.71;64.55;97971.72;1622371;88;20966;-62
2021/01/17 01:10:34;;;;;;;5.95;5.35;;;;;;;-5.73;64.76;97973.05;1622574;88;21570;-62
2021/01/17 01:13:02;;;;;;;9.20;6.17;;;;;;;-5.72;64.78;97977.83;1622466;88;21419;-62
2021/01/17 01:15:29;;;;;;;10.85;6.67;;;;;;;-5.72;64.95;97969.98;1622429;88;21002;-61
2021/01/17 01:18:01;;;;;;;10.30;7.33;;;;;;;-5.75;64.97;97971.34;1622422;88;20983;-63
2021/01/17 01:20:28;;;;;;;10.78;6.45;;;;;;;-5.74;65.01;97973.91;1622552;88;21538;-62
2021/01/17 01:22:56;;;;;;;7.40;6.17;;;;;;;-5.72;64.97;97973.90;1622543;88;21049;-62
2021/01/17 01:25:24;;;;;;;10.93;7.55;;;;;;;-5.73;64.98;97970.88;1622467;88;21455;-63
2021/01/17 01:27:53;;;;;;;8.38;5.55;;;;;;;-5.75;65.04;97973.97;1622347;88;21060;-63
2021/01/17 01:30:21;;;;;;;10.65;8.90;;;;;;;-5.75;64.99;97976.13;1622480;88;20982;-60
2021/01/17 01:32:50;;;;;;;9.08;6.60;;;;;;;-5.74;65.05;97978.30;1609280;88;20991;-60
2021/01/17 01:35:19;;;;;;;9.58;7.33;;;;;;;-5.74;65.02;97981.77;1649378;87;20909;-61
2021/01/17 01:37:47;;;;;;;9.95;7.20;;;;;;;-5.73;65.05;97974.80;1649207;87;21195;-61
2021/01/17 01:40:16;;;;;;;11.00;7.80;;;;;;;-5.74;65.11;97979.59;1625633;88;21021;-62
2021/01/17 01:42:43;;;;;;;9.80;7.17;;;;;;;-5.74;65.04;97982.22;1625711;88;21109;-62
2021/01/17 01:45:12;;;;;;;9.10;7.35;;;;;;;-5.75;65.00;97972.66;1649254;87;20907;-61
2021/01/17 01:47:40;;;;;;;11.22;7.53;;;;;;;-5.77;64.85;97975.70;1649314;87;20912;-61
2021/01/17 01:50:10;;;;;;;9.98;7.35;;;;;;;-5.80;64.85;97981.86;1625458;88;21481;-61
2021/01/17 01:52:37;;;;;;;10.23;7.87;;;;;;;-5.82;64.84;97974.03;1625722;88;21423;-62
2021/01/17 01:55:08;;;;;;;11.38;7.95;;;;;;;-5.81;64.81;97991.89;1625655;88;21009;-62
2021/01/17 01:57:35;;;;;;;11.30;8.85;;;;;;;-5.82;64.88;97983.60;1649277;87;21463;-62
2021/01/17 02:00:09;;;;;;;9.23;7.80;;;;;;;-5.83;64.93;97985.81;1628491;87;21462;-62
2021/01/17 02:02:44;;;;;;;10.25;7.22;;;;;;;-5.86;64.88;97985.39;1625784;88;21233;-62
2021/01/17 02:05:13;;;;;;;10.90;8.57;;;;;;;-5.90;64.79;97986.30;1629402;87;21064;-61
2021/01/17 02:08:25;;;;;;;8.73;6.58;;;;;;;-5.94;64.82;97980.69;1649208;87;22131;-61
2021/01/17 02:10:52;;;;;;;10.20;7.37;;;;;;;-5.97;64.90;97978.55;1649198;87;21534;-61
2021/01/17 02:13:30;;;;;;;8.65;6.50;;;;;;;-6.01;64.96;97986.47;1625750;88;20926;-61
2021/01/17 02:15:58;;;;;;;11.15;7.90;;;;;;;-6.03;64.89;97990.81;1649255;87;21349;-62
2021/01/17 02:18:26;;;;;;;10.38;7.83;;;;;;;-6.06;65.06;97983.00;1649119;87;20984;-62
2021/01/17 02:20:54;;;;;;;8.18;5.90;;;;;;;-6.07;65.13;97989.55;1625641;88;21057;-61
2021/01/17 02:23:27;;;;;;;8.68;6.50;;;;;;;-6.08;65.15;97989.15;1625634;88;21068;-62
2021/01/17 02:25:55;;;;;;;10.45;7.47;;;;;;;-6.08;65.20;97994.38;1625851;88;21049;-61
2021/01/17 02:28:23;;;;;;;10.48;7.30;;;;;;;-6.09;65.32;97990.02;1625554;88;21237;-61
2021/01/17 02:30:52;;;;;;;10.35;6.12;;;;;;;-6.09;65.31;97987.41;1625623;88;20970;-61
2021/01/17 02:33:32;;;;;;;10.08;7.45;;;;;;;-6.08;65.41;97985.23;1625439;88;20997;-61
2021/01/17 02:36:16;;;;;;;11.33;8.33;;;;;;;-6.08;65.23;97983.47;1625426;88;20961;-61
2021/01/17 02:39:12;;;;;;;10.15;7.40;;;;;;;-6.06;65.24;97987.38;1649234;87;21025;-62
2021/01/17 02:41:58;;;;;;;14.03;8.85;;;;;;;-6.02;65.57;97983.86;1649223;87;21222;-63
2021/01/17 02:44:29;;;;;;;10.80;7.75;;;;;;;-6.00;65.49;97979.47;1649232;87;21479;-61
2021/01/17 02:46:56;;;;;;;10.82;7.47;;;;;;;-5.98;65.60;97982.93;1625648;88;21050;-61
2021/01/17 02:49:24;;;;;;;10.68;7.80;;;;;;;-5.96;65.22;97981.13;1625673;88;21106;-62
2021/01/17 02:51:52;;;;;;;13.70;8.85;;;;;;;-5.94;64.97;97984.61;1649213;87;20950;-61
2021/01/17 02:54:40;;;;;;;7.97;6.60;;;;;;;-5.94;65.14;97979.38;1649182;87;21282;-61
2021/01/17 02:57:10;;;;;;;9.88;7.60;;;;;;;-5.92;64.95;97984.59;1625582;88;21117;-63
2021/01/17 03:00:08;;;;;;;9.58;6.90;;;;;;;-5.92;64.75;97984.14;1649207;87;21017;-61
2021/01/17 03:02:42;;;;;;;8.85;7.40;;;;;;;-5.96;64.38;97979.81;1649256;87;21468;-61
2021/01/17 03:05:16;;;;;;;11.38;8.78;;;;;;;-5.94;64.48;97980.69;1625696;88;20922;-62
2021/01/17 03:07:53;;;;;;;7.97;5.92;;;;;;;-5.97;64.33;97970.70;1629456;87;21232;-62
2021/01/17 03:10:21;;;;;;;9.55;6.30;;;;;;;-6.00;64.28;97959.41;1649258;87;21364;-62
2021/01/17 03:12:49;;;;;;;10.15;7.87;;;;;;;-6.03;64.11;97959.89;1649228;87;20972;-62
2021/01/17 03:15:17;;;;;;;12.20;7.97;;;;;;;-6.06;63.80;97966.45;1625677;88;21038;-61
2021/01/17 03:17:44;;;;;;;9.83;6.97;;;;;;;-6.11;63.85;97962.58;1649161;87;20981;-62
2021/01/17 03:20:13;;;;;;;9.95;7.50;;;;;;;-6.14;63.83;97968.28;1649164;87;21164;-61
2021/01/17 03:22:41;;;;;;;12.23;8.45;;;;;;;-6.18;63.97;97973.55;1625628;88;20978;-61
2021/01/17 03:25:11;;;;;;;10.88;8.23;;;;;;;-6.20;63.97;97965.28;1649310;87;20965;-61
2021/01/17 03:27:39;;;;;;;10.82;7.45;;;;;;;-6.23;64.08;97967.92;1649191;87;21498;-63
2021/01/17 03:30:08;;;;;;;9.38;7.00;;;;;;;-6.25;64.13;97971.86;1649208;87;20960;-63
2021/01/17 03:32:36;;;;;;;10.90;7.67;;;;;;;-6.27;64.12;97965.78;1625678;88;22330;-63
2021/01/17 03:35:05;;;;;;;10.20;7.75;;;;;;;-6.31;64.10;97962.76;1625694;88;21033;-61
2021/01/17 03:37:35;;;;;;;8.83;7.40;;;;;;;-6.33;64.20;97971.06;1649260;87;21024;-62
2021/01/17 03:40:04;;;;;;;9.15;6.10;;;;;;;-6.35;64.22;97975.45;1649326;87;20957;-61
2021/01/17 03:42:32;;;;;;;10.93;8.58;;;;;;;-6.35;64.38;97976.75;1625898;88;20942;-61
2021/01/17 03:44:59;;;;;;;11.45;8.53;;;;;;;-6.33;64.45;97981.52;1649367;86;21410;-62
2021/01/17 03:47:27;;;;;;;12.03;7.97;;;;;;;-6.31;64.57;97979.75;1649192;87;21017;-61
2021/01/17 03:49:55;;;;;;;11.22;8.53;;;;;;;-6.26;64.79;97982.32;1649308;87;20964;-62
2021/01/17 03:52:22;;;;;;;11.45;8.13;;;;;;;-6.23;64.81;97988.41;1625759;88;20962;-62
2021/01/17 03:54:52;;;;;;;12.93;8.80;;;;;;;-6.21;64.79;97980.11;1649371;87;20961;-62
2021/01/17 03:57:20;;;;;;;10.00;7.60;;;;;;;-6.20;64.36;97981.81;1649327;87;21289;-62
2021/01/17 03:59:48;;;;;;;9.70;7.90;;;;;;;-6.20;64.25;97988.35;1625677;88;20994;-62
2021/01/17 04:02:15;;;;;;;10.53;7.67;;;;;;;-6.20;64.26;97985.73;1625795;88;21045;-62
2021/01/17 04:04:43;;;;;;;11.95;8.98;;;;;;;-6.22;64.19;97984.05;1649258;87;21049;-62
2021/01/17 04:07:11;;;;;;;10.98;8.90;;;;;;;-6.22;64.31;97984.89;1649295;87;20969;-62
2021/01/17 04:09:38;;;;;;;11.75;8.70;;;;;;;-6.21;64.38;97991.88;1625737;88;21284;-62
2021/01/17 04:12:07;;;;;;;10.38;7.97;;;;;;;-6.19;64.48;97986.18;1649247;87;21014;-61
2021/01/17 04:14:34;;;;;;;12.20;8.50;;;;;;;-6.15;64.55;97990.08;1649316;87;20997;-60
2021/01/17 04:17:01;;;;;;;11.12;9.20;;;;;;;-6.12;64.63;97993.97;1625696;88;20978;-61
2021/01/17 04:19:29;;;;;;;11.88;8.90;;;;;;;-6.09;64.66;97995.25;1649319;87;20957;-61
2021/01/17 04:21:56;;;;;;;12.65;8.55;;;;;;;-6.08;64.78;97994.38;1649303;87;21414;-61
2021/01/17 04:24:24;;;;;;;12.47;9.33;;;;;;;-6.04;64.62;98003.91;1625766;88;21068;-62
2021/01/17 04:26:58;;;;;;;11.38;8.65;;;;;;;-6.01;64.61;98009.11;1649281;87;20982;-62
2021/01/17 04:29:26;;;;;;;12.20;8.85;;;;;;;-5.98;64.73;98011.70;1649206;87;21052;-62
2021/01/17 04:31:55;;;;;;;10.85;8.48;;;;;;;-5.94;64.48;98018.61;1649278;86;21049;-62
2021/01/17 04:34:23;;;;;;;13.10;8.48;;;;;;;-5.91;64.45;98012.47;1649350;87;21232;-62
2021/01/17 04:36:51;;;;;;;14.45;10.00;;;;;;;-5.89;64.75;98014.20;1625667;88;20977;-62
2021/01/17 04:39:21;;;;;;;14.23;10.15;;;;;;;-5.84;64.52;98015.45;1625671;88;20950;-61
2021/01/17 04:41:48;;;;;;;20.37;10.63;;;;;;;-5.82;64.52;98018.50;1625749;88;20974;-61
2021/01/17 04:44:20;;;;;;;16.20;10.50;;;;;;;-5.79;64.45;98019.34;1625704;88;21046;-61
2021/01/17 04:46:48;;;;;;;14.58;10.50;;;;;;;-5.76;64.52;98025.40;1649248;87;21224;-62
2021/01/17 04:49:15;;;;;;;13.60;10.28;;;;;;;-5.72;64.50;98028.84;1649224;87;20997;-62
2021/01/17 04:51:43;;;;;;;17.12;12.15;;;;;;;-5.70;64.27;98019.25;1649341;87;21021;-62
2021/01/17 04:54:11;;;;;;;13.80;10.53;;;;;;;-5.67;64.27;98025.30;1649320;87;21495;-62
2021/01/17 04:56:45;;;;;;;18.67;11.90;;;;;;;-5.64;64.30;98025.73;1649242;87;20914;-62
2021/01/17 04:59:15;;;;;;;15.60;11.45;;;;;;;-5.62;64.17;98025.27;1649284;86;22151;-61
2021/01/17 05:02:00;;;;;;;12.95;9.30;;;;;;;-5.60;64.24;98030.02;1635696;86;20922;-62
2021/01/17 05:04:59;;;;;;;14.93;9.83;;;;;;;-5.57;64.27;98028.69;1594403;87;20966;-63
2021/01/17 05:07:32;;;;;;;13.48;10.35;;;;;;;-5.56;64.22;98024.34;1648239;87;21100;-61
2021/01/17 05:10:11;;;;;;;;;;;;;;;-5.55;63.89;98021.70;1651738;87;20927;-61
2021/01/17 05:12:51;;;;;;;13.75;9.68;;;;;;;-5.53;63.80;98033.47;1649238;86;21215;-62
2021/01/17 05:15:20;;;;;;;13.55;9.90;;;;;;;-5.54;63.81;98036.50;1649346;87;20966;-62
2021/01/17 05:17:48;;;;;;;12.60;9.60;;;;;;;-5.54;64.07;98036.50;1649267;87;20978;-62
2021/01/17 05:20:17;;;;;;;11.93;9.15;;;;;;;-5.52;64.18;98042.61;1649205;87;21017;-62
2021/01/17 05:22:45;;;;;;;12.40;9.35;;;;;;;-5.49;64.22;98035.14;1649276;87;20970;-62
2021/01/17 05:25:13;;;;;;;14.13;9.45;;;;;;;-5.47;64.27;98032.95;1649300;87;21414;-62
2021/01/17 05:27:44;;;;;;;12.15;9.03;;;;;;;-5.45;64.15;98031.62;1625641;88;21001;-62
2021/01/17 05:30:14;;;;;;;13.35;10.38;;;;;;;-5.46;64.02;98031.19;1625459;88;21003;-62
2021/01/17 05:32:42;;;;;;;12.28;9.98;;;;;;;-5.45;64.10;98031.17;1627772;87;21053;-62
2021/01/17 05:35:11;;;;;;;14.90;10.50;;;;;;;-5.45;64.19;98024.63;1650525;87;20902;-62
2021/01/17 05:37:51;;;;;;;13.22;9.75;;;;;;;-5.43;64.11;98028.98;1650425;87;22157;-62
2021/01/17 05:40:20;;;;;;;9.58;8.00;;;;;;;-5.42;63.96;98030.70;1637663;87;20977;-62
2021/01/17 05:42:48;;;;;;;13.62;9.70;;;;;;;-5.42;64.07;98034.20;1650558;87;20967;-62
2021/01/17 05:45:23;;;;;;;11.93;9.03;;;;;;;-5.45;64.07;98024.63;1637694;87;21058;-62
2021/01/17 05:48:00;;;;;;;15.55;9.35;;;;;;;-5.43;64.28;98025.06;1650444;87;20902;-61
2021/01/17 05:50:31;;;;;;;9.63;7.47;;;;;;;-5.42;64.23;98040.75;1654687;84;21177;-61
2021/01/17 05:53:00;;;;;;;11.97;7.87;;;;;;;-5.42;64.22;98039.86;1654596;86;20977;-61
2021/01/17 05:55:44;;;;;;;9.40;7.55;;;;;;;-5.46;64.17;98039.89;1654662;86;21027;-61
2021/01/17 05:58:34;;;;;;;11.75;8.75;;;;;;;-5.47;64.19;98039.91;1654659;86;20960;-62
2021/01/17 06:01:19;;;;;;;12.28;8.65;;;;;;;-5.46;64.15;98051.67;1654554;86;20964;-61
2021/01/17 06:03:52;;;;;;;12.03;10.18;;;;;;;-5.46;64.38;98050.37;1654741;86;21223;-62
2021/01/17 06:06:29;;;;;;;11.73;9.23;;;;;;;-5.46;64.38;98051.67;1654596;86;20968;-61
2021/01/17 06:08:59;;;;;;;12.65;9.53;;;;;;;-5.45;64.47;98053.42;1654441;86;21060;-62
2021/01/17 06:11:27;;;;;;;11.30;8.78;;;;;;;-5.43;64.26;98061.70;1654700;86;21028;-61
2021/01/17 06:14:02;;;;;;;13.08;9.65;;;;;;;-5.43;64.32;98058.64;1654704;86;21044;-61
2021/01/17 06:16:39;;;;;;;17.52;11.10;;;;;;;-5.43;64.28;98061.70;1654799;86;21124;-62
2021/01/17 06:19:09;;;;;;;14.33;9.98;;;;;;;-5.43;64.37;98064.33;1654656;86;21485;-61
2021/01/17 06:21:38;;;;;;;12.20;7.25;;;;;;;-5.42;64.57;98069.97;1654702;86;20964;-61
2021/01/17 06:24:09;;;;;;;14.35;10.70;;;;;;;-5.41;64.62;98067.78;1654656;86;21589;-61
2021/01/17 06:26:39;;;;;;;10.20;7.15;;;;;;;-5.38;64.50;98071.23;1654678;86;21035;-61
2021/01/17 06:29:09;;;;;;;11.97;9.33;;;;;;;-5.37;64.53;98077.34;1654631;86;21396;-61
2021/01/17 06:31:38;;;;;;;12.00;9.18;;;;;;;-5.33;64.54;98076.41;1654665;86;21030;-61
2021/01/17 06:34:15;;;;;;;12.75;9.00;;;;;;;-5.32;64.62;98079.02;1646517;86;21498;-61
2021/01/17 06:36:46;;;;;;;18.20;10.13;;;;;;;-5.30;64.58;98090.36;1642143;87;21529;-61
2021/01/17 06:39:26;;;;;;;13.05;10.08;;;;;;;-5.29;64.66;98088.59;1642118;87;21069;-63
2021/01/17 06:41:59;;;;;;;13.72;10.50;;;;;;;-5.27;64.67;98084.20;1642330;87;21240;-62
2021/01/17 06:44:30;;;;;;;16.17;10.38;;;;;;;-5.25;64.61;98098.13;1642144;87;21032;-62
2021/01/17 06:46:58;;;;;;;16.65;11.25;;;;;;;-5.23;64.65;98096.39;1642266;87;20993;-62
2021/01/17 06:49:29;;;;;;;16.25;11.55;;;;;;;-5.21;64.60;98103.78;1642014;87;21016;-62
2021/01/17 06:51:57;;;;;;;14.70;10.98;;;;;;;-5.17;64.65;98106.80;1642123;87;21000;-62
2021/01/17 06:54:39;;;;;;;13.35;9.90;;;;;;;-5.15;64.67;98110.25;1642100;87;21169;-61
2021/01/17 06:57:07;;;;;;;19.62;12.88;;;;;;;-5.12;64.32;98119.39;1642093;87;21020;-62
2021/01/17 06:59:37;;;;;;;24.92;16.80;;;;;;;-5.09;65.02;98122.42;1642127;87;21024;-62
2021/01/17 07:02:17;;;;;;;30.10;17.95;;;;;;;-5.09;65.24;98116.73;1642132;87;21057;-61
2021/01/17 07:05:12;;;;;;;39.50;22.95;;;;;;;-5.06;65.53;98123.70;1642201;87;21041;-62
2021/01/17 07:08:17;;;;;;;35.15;20.77;;;;;;;-5.03;65.72;98128.91;1642306;87;21166;-61
2021/01/17 07:10:46;;;;;;;27.62;18.98;;;;;;;-5.00;65.83;98133.23;1641871;86;21077;-63
2021/01/17 07:13:14;;;;;;;29.80;19.67;;;;;;;-4.99;66.09;98134.97;1642212;87;20972;-62
2021/01/17 07:15:46;;;;;;;46.68;28.15;;;;;;;-4.97;66.40;98142.36;1617335;87;21458;-63
2021/01/17 07:18:17;;;;;;;53.40;29.37;;;;;;;-4.96;66.53;98136.25;1642261;87;21028;-62
2021/01/17 07:20:47;;;;;;;33.48;22.40;;;;;;;-4.93;66.54;98146.69;1642237;87;21337;-63
2021/01/17 07:23:18;;;;;;;46.90;27.62;;;;;;;-4.91;66.36;98150.16;1642243;87;21036;-63
2021/01/17 07:25:47;;;;;;;26.25;17.25;;;;;;;-4.91;66.28;98148.39;1642059;87;21040;-63
2021/01/17 07:28:19;;;;;;;22.30;16.23;;;;;;;-4.85;66.39;98153.16;1642268;87;21600;-63
2021/01/17 07:31:02;;;;;;;19.85;14.20;;;;;;;-4.83;66.45;98156.16;1642503;87;21453;-61
2021/01/17 07:33:36;;;;;;;20.85;14.70;;;;;;;-4.80;66.29;98157.44;1645142;86;21165;-62
2021/01/17 07:36:07;;;;;;;31.55;18.07;;;;;;;-4.77;65.91;98149.55;1654824;86;21092;-63
2021/01/17 07:38:38;;;;;;;30.00;18.10;;;;;;;-4.74;65.90;98144.27;1654729;86;21067;-62
2021/01/17 07:41:10;;;;;;;25.62;15.65;;;;;;;-4.68;66.05;98151.63;1654993;86;21012;-62
2021/01/17 07:43:43;;;;;;;23.92;15.80;;;;;;;-4.63;65.96;98157.70;1654854;86;21035;-61
2021/01/17 07:46:15;;;;;;;19.60;14.20;;;;;;;-4.58;66.20;98166.36;1654791;86;21300;-61
2021/01/17 07:48:47;;;;;;;17.92;13.48;;;;;;;-4.55;66.14;98170.26;1654655;86;21043;-61
2021/01/17 07:51:16;;;;;;;17.48;12.37;;;;;;;-4.52;65.97;98178.08;1655026;86;20980;-61
2021/01/17 07:54:09;;;;;;;15.93;12.95;;;;;;;-4.50;65.93;98180.23;1654729;86;21075;-62
2021/01/17 07:56:37;;;;;;;23.27;14.63;;;;;;;-4.47;65.83;98180.20;1654977;86;20976;-62
2021/01/17 07:59:06;;;;;;;23.70;15.45;;;;;;;-4.47;65.64;98177.58;1654646;86;21405;-62
2021/01/17 08:01:40;;;;;;;28.40;17.67;;;;;;;-4.44;65.41;98182.78;1654751;86;21071;-62
2021/01/17 08:04:16;;;;;;;22.37;15.13;;;;;;;-4.42;65.43;98175.75;1654768;86;20964;-62
2021/01/17 08:06:49;;;;;;;21.17;13.75;;;;;;;-4.37;65.31;98178.31;1654849;86;21087;-62
2021/01/17 08:09:44;;;;;;;24.72;15.75;;;;;;;-4.31;65.10;98183.48;1654729;86;20967;-63
2021/01/17 08:12:34;;;;;;;17.25;13.10;;;;;;;-4.25;65.07;98187.79;1654819;86;21459;-61
2021/01/17 08:15:17;;;;;;;19.85;14.28;;;;;;;-4.20;64.96;98190.76;1654794;86;20980;-63
2021/01/17 08:17:45;;;;;;;20.55;14.40;;;;;;;-4.11;64.93;98202.04;1654836;86;21035;-64
2021/01/17 08:20:29;;;;;;;22.35;15.95;;;;;;;-4.04;64.91;98205.84;1654627;86;20929;-63
2021/01/17 08:23:04;;;;;;;18.75;14.58;;;;;;;-4.00;64.66;98210.17;1654441;86;20972;-62
2021/01/17 08:25:51;;;;;;;25.80;15.53;;;;;;;-3.93;64.66;98215.33;1654808;86;21215;-63
2021/01/17 08:28:37;;;;;;;25.10;17.02;;;;;;;-3.92;64.65;98215.77;1654741;86;21390;-61
2021/01/17 08:31:33;;;;;;;18.55;12.93;;;;;;;-3.92;64.92;98222.33;1653627;86;21056;-62
2021/01/17 08:34:11;;;;;;;22.15;13.55;;;;;;;-3.86;65.21;98219.62;1650257;86;20977;-62
2021/01/17 08:36:40;;;;;;;14.35;11.40;;;;;;;-3.80;64.92;98223.44;1641066;87;21029;-63
2021/01/17 08:39:09;;;;;;;18.48;14.63;;;;;;;-3.75;64.49;98228.20;1641364;87;21230;-63
2021/01/17 08:41:39;;;;;;;20.45;14.68;;;;;;;-3.73;64.29;98231.66;1641794;87;21558;-62
2021/01/17 08:44:11;;;;;;;22.45;16.52;;;;;;;-3.69;64.00;98240.34;1641437;87;20990;-63
2021/01/17 08:46:41;;;;;;;25.77;16.57;;;;;;;-3.69;64.06;98242.55;1642034;87;21700;-63
2021/01/17 08:49:11;;;;;;;27.00;19.15;;;;;;;-3.70;63.90;98239.48;1641892;87;21092;-64
2021/01/17 08:51:40;;;;;;;28.87;18.77;;;;;;;-3.73;64.17;98238.22;1616203;87;21418;-64
2021/01/17 08:54:22;;;;;;;27.65;18.32;;;;;;;-3.73;64.37;98239.53;1637653;87;21032;-63
2021/01/17 08:56:53;;;;;;;20.68;13.65;;;;;;;-3.71;64.46;98239.05;1641297;87;21080;-62
2021/01/17 08:59:34;;;;;;;15.38;10.98;;;;;;;-3.67;64.50;98247.31;1642009;87;20985;-62
2021/01/17 09:02:03;;;;;;;10.78;9.05;;;;;;;-3.67;64.38;98252.56;1642018;87;20977;-62
2021/01/17 09:04:32;;;;;;;13.08;9.05;;;;;;;-3.69;64.49;98253.05;1641736;87;21244;-63
2021/01/17 09:07:01;;;;;;;10.45;8.88;;;;;;;-3.70;64.70;98252.61;1641364;87;21068;-62
2021/01/17 09:09:31;;;;;;;12.25;9.73;;;;;;;-3.69;64.77;98254.36;1641889;87;21108;-64
2021/01/17 09:12:10;;;;;;;13.40;10.88;;;;;;;-3.68;64.87;98260.00;1642010;87;20985;-62
2021/01/17 09:14:39;;;;;;;16.75;11.30;;;;;;;-3.66;64.93;98267.44;1641629;87;21068;-62
2021/01/17 09:17:08;;;;;;;10.98;8.70;;;;;;;-3.66;65.13;98260.88;1641741;87;21460;-63
2021/01/17 09:19:36;;;;;;;15.72;11.22;;;;;;;-3.61;65.16;98265.17;1641877;87;21008;-63
2021/01/17 09:22:08;;;;;;;13.83;11.75;;;;;;;-3.57;65.23;98260.31;1641978;87;21060;-63
2021/01/17 09:24:37;;;;;;;17.17;14.50;;;;;;;-3.52;65.14;98254.53;1641741;87;21024;-63
2021/01/17 09:27:09;;;;;;;17.77;13.30;;;;;;;-3.43;65.06;98265.36;1641866;87;21052;-62
2021/01/17 09:29:42;;;;;;;17.98;14.00;;;;;;;-3.38;64.83;98268.31;1641887;87;20985;-61
2021/01/17 09:32:16;;;;;;;19.60;12.70;;;;;;;-3.34;65.00;98262.14;1641973;87;21001;-63
2021/01/17 09:34:47;;;;;;;13.48;10.75;;;;;;;-3.30;64.93;98267.75;1642331;87;20969;-62
2021/01/17 09:37:18;;;;;;;10.95;8.58;;;;;;;-3.25;65.04;98266.81;1680603;85;20972;-62
2021/01/17 09:39:52;;;;;;;19.17;11.97;;;;;;;-3.23;65.01;98265.02;1635686;86;21045;-62
2021/01/17 09:42:24;;;;;;;15.48;11.60;;;;;;;-3.21;64.94;98265.89;1625652;88;21405;-61
2021/01/17 09:44:56;;;;;;;13.67;11.13;;;;;;;-3.21;64.97;98267.20;1625847;88;21064;-63
2021/01/17 09:47:25;;;;;;;15.60;11.20;;;;;;;-3.20;64.84;98267.60;1649344;87;21397;-63
2021/01/17 09:49:53;;;;;;;14.15;10.58;;;;;;;-3.20;65.03;98264.98;1649215;86;21395;-62
2021/01/17 09:52:25;;;;;;;12.75;10.53;;;;;;;-3.19;64.89;98273.29;1649287;87;20915;-62
2021/01/17 09:54:54;;;;;;;13.45;11.28;;;;;;;-3.19;64.76;98262.78;1649247;87;21357;-63
2021/01/17 09:57:25;;;;;;;17.82;13.80;;;;;;;-3.19;64.88;98266.27;1649220;87;21041;-63
2021/01/17 09:59:55;;;;;;;18.80;14.18;;;;;;;-3.18;65.31;98268.47;1649255;87;21511;-64
2021/01/17 10:02:24;;;;;;;18.73;13.90;;;;;;;-3.16;65.37;98265.36;1649218;86;20911;-63
2021/01/17 10:04:53;;;;;;;12.70;10.23;;;;;;;-3.15;65.21;98265.79;1648771;87;21586;-63
2021/01/17 10:07:24;;;;;;;16.25;13.00;;;;;;;-3.15;65.26;98268.42;1649079;86;21817;-62
2021/01/17 10:09:54;;;;;;;17.37;13.40;;;;;;;-3.14;65.46;98256.99;1648706;87;21040;-62
2021/01/17 10:12:24;;;;;;;16.23;12.43;;;;;;;-3.12;65.65;98260.48;1649099;87;20973;-63
2021/01/17 10:14:53;;;;;;;13.68;11.57;;;;;;;-3.11;65.37;98263.06;1649113;87;20957;-62
2021/01/17 10:17:21;;;;;;;18.02;12.73;;;;;;;-3.07;65.28;98267.84;1649142;87;21515;-63
2021/01/17 10:19:49;;;;;;;14.65;11.88;;;;;;;-3.05;65.37;98266.04;1649165;87;21406;-63
2021/01/17 10:22:17;;;;;;;17.07;12.23;;;;;;;-3.03;65.39;98262.94;1649187;87;21009;-63
2021/01/17 10:24:44;;;;;;;14.93;10.55;;;;;;;-2.99;65.39;98265.94;1649205;87;21085;-64
2021/01/17 10:27:16;;;;;;;15.30;11.22;;;;;;;-2.93;65.30;98271.09;1648824;87;21057;-62
2021/01/17 10:29:43;;;;;;;12.03;9.73;;;;;;;-2.91;65.15;98267.98;1649203;87;20922;-62
2021/01/17 10:32:13;;;;;;;13.13;10.48;;;;;;;-2.88;65.04;98274.11;1649159;87;21392;-61
2021/01/17 10:34:47;;;;;;;12.15;9.85;;;;;;;-2.85;64.54;98274.02;1628721;87;20997;-63
2021/01/17 10:37:17;;;;;;;13.70;10.18;;;;;;;-2.89;63.89;98272.36;1650388;87;21041;-63
2021/01/17 10:39:47;;;;;;;11.88;9.68;;;;;;;-2.95;63.70;98267.64;1647710;87;21013;-62
2021/01/17 10:42:29;;;;;;;13.45;9.78;;;;;;;-2.96;63.90;98279.48;1637731;87;21040;-62
2021/01/17 10:45:07;;;;;;;11.63;8.90;;;;;;;-2.97;63.96;98275.11;1650516;87;22304;-62
2021/01/17 10:48:05;;;;;;;12.03;9.28;;;;;;;-2.98;63.90;98270.31;1654284;86;21098;-63
2021/01/17 10:50:50;;;;;;;13.98;10.88;;;;;;;-2.99;63.55;98275.14;1654593;86;21374;-63
2021/01/17 10:53:23;;;;;;;13.62;10.45;;;;;;;-2.96;63.59;98276.86;1654176;86;47916;-63
2021/01/17 10:55:56;;;;;;;19.25;13.30;;;;;;;-2.98;63.58;98279.94;1654830;86;20956;-62
2021/01/17 10:58:30;;;;;;;16.60;10.60;;;;;;;-2.94;63.81;98275.92;1654597;86;21230;-63
2021/01/17 11:01:00;;;;;;;15.13;10.38;;;;;;;-2.94;63.41;98275.92;1654289;86;21599;-63
2021/01/17 11:03:39;;;;;;;12.00;8.83;;;;;;;-2.95;62.61;98275.52;1654621;86;20992;-63
2021/01/17 11:06:22;;;;;;;10.98;8.25;;;;;;;-2.93;62.63;98275.03;1654704;86;21015;-62
2021/01/17 11:08:51;;;;;;;13.25;10.45;;;;;;;-2.89;62.52;98273.21;1654509;86;20964;-62
2021/01/17 11:11:19;;;;;;;17.32;12.18;;;;;;;-2.84;62.43;98278.39;1654589;86;21402;-62
2021/01/17 11:14:00;;;;;;;13.40;9.90;;;;;;;-2.83;62.10;98274.88;1654577;86;21036;-63
2021/01/17 11:16:42;;;;;;;11.95;9.65;;;;;;;-2.79;61.89;98279.17;1654619;86;21023;-63
2021/01/17 11:19:12;;;;;;;11.55;8.38;;;;;;;-2.78;61.73;98278.29;1654196;86;20932;-63
2021/01/17 11:21:41;;;;;;;11.35;9.40;;;;;;;-2.79;61.74;98282.69;1654642;86;20920;-63
2021/01/17 11:24:11;;;;;;;14.10;11.30;;;;;;;-2.80;61.77;98278.77;1654519;86;21391;-63
2021/01/17 11:26:39;;;;;;;14.07;11.22;;;;;;;-2.77;62.01;98280.03;1654594;86;21027;-63
2021/01/17 11:29:17;;;;;;;14.45;11.00;;;;;;;-2.74;62.14;98283.47;1654562;86;21024;-63
2021/01/17 11:31:45;;;;;;;12.30;9.30;;;;;;;-2.73;61.99;98278.64;1654565;86;21049;-64
2021/01/17 11:34:15;;;;;;;14.20;12.53;;;;;;;-2.73;62.15;98276.44;1654622;86;21059;-64
2021/01/17 11:36:42;;;;;;;14.45;11.57;;;;;;;-2.78;62.31;98274.34;1642428;86;21194;-63
2021/01/17 11:39:19;;;;;;;13.95;10.98;;;;;;;-2.75;62.59;98272.98;1642150;87;21000;-63
2021/01/17 11:41:47;;;;;;;16.00;12.33;;;;;;;-2.75;62.54;98275.15;1634858;87;21041;-63
2021/01/17 11:44:18;;;;;;;16.15;13.08;;;;;;;-2.73;62.53;98273.38;1689860;85;21444;-64
2021/01/17 11:46:46;;;;;;;18.27;13.22;;;;;;;-2.70;62.60;98277.70;1658647;86;21029;-62